Breesport, New York
Current Conditions -  °F | °C
As of 4:53 PM on Thursday 27 Nov 2014 (Local Time) from KELM Reporting Station
Broken Clouds Broken Clouds  
Wind Chill: 32°   Ceiling: 3800
Heat Index: 32°   Visibility: 10mi
Dew Point: 19°   Wind: 3mph
Humidity: 59%   Direction: NA
Pressure: 30.04"   Gusts: NA
Location:  42.17°N, 76.73°W
Report Text: KELM 272153Z VRB03KT 10SM BKN038 BKN047 00/M07 A3004 RMK AO2 SLP182 T00001072
Loading
Personal Weather Stations






























Interactive Weather Map New forecast layout! Learn more

10-Day Weather Forecast

Advertisements
Track Severe Weather on mobile